createdAt,value
2023-02-27T00:01:21.118Z,75.91
2023-02-27T00:03:52.327Z,75.43
2023-02-27T00:06:40.273Z,74.77
2023-02-27T00:09:35.956Z,74.01
2023-02-27T00:12:30.800Z,73.19
2023-02-27T00:15:13.905Z,72.81
2023-02-27T00:17:47.870Z,72.65
2023-02-27T00:20:27.374Z,72.12
2023-02-27T00:25:55.864Z,71.54
2023-02-27T00:28:26.236Z,70.24
2023-02-27T00:30:57.788Z,70.04
2023-02-27T00:33:26.294Z,70.05
2023-02-27T00:35:59.384Z,70.40
2023-02-27T00:38:38.263Z,71.00
2023-02-27T00:41:13.383Z,70.18
2023-02-27T00:43:47.319Z,69.54
2023-02-27T00:46:18.747Z,68.81
2023-02-27T00:48:47.300Z,69.41
2023-02-27T00:51:15.794Z,70.36
2023-02-27T00:53:49.508Z,70.49
2023-02-27T00:56:23.631Z,70.15
2023-02-27T00:58:57.048Z,69.70
2023-02-27T01:01:29.269Z,69.61
2023-02-27T01:03:57.891Z,70.07
2023-02-27T01:06:26.103Z,71.22
2023-02-27T01:08:56.704Z,72.39
2023-02-27T01:11:26.104Z,73.20
2023-02-27T01:13:56.075Z,73.40
2023-02-27T01:16:28.431Z,73.60
2023-02-27T01:19:11.740Z,73.83
2023-02-27T01:21:42.417Z,74.23
2023-02-27T01:24:11.336Z,74.52
2023-02-27T01:26:47.253Z,74.63
2023-02-27T01:29:21.637Z,74.83
2023-02-27T01:31:50.426Z,74.50
2023-02-27T01:34:26.948Z,74.35
2023-02-27T01:36:59.386Z,74.27
2023-02-27T01:39:30.042Z,74.44
2023-02-27T01:41:58.828Z,74.30
2023-02-27T01:44:54.128Z,74.13
2023-02-27T01:47:23.245Z,74.21
2023-02-27T01:49:58.905Z,73.92
2023-02-27T01:52:34.696Z,74.22
2023-02-27T01:55:04.051Z,74.42
2023-02-27T01:57:32.816Z,74.31
2023-02-27T02:00:24.424Z,73.78
2023-02-27T02:03:12.042Z,73.60
2023-02-27T02:05:45.701Z,73.18
2023-02-27T02:08:18.286Z,73.16
2023-02-27T02:10:48.671Z,73.10
2023-02-27T02:13:22.514Z,73.04
2023-02-27T02:15:59.062Z,72.63
2023-02-27T02:18:43.108Z,72.52
2023-02-27T02:21:44.269Z,72.65
2023-02-27T02:25:02.276Z,72.57
2023-02-27T02:27:48.598Z,72.20
2023-02-27T02:30:54.739Z,71.80
2023-02-27T02:33:59.959Z,71.47
2023-02-27T02:36:57.251Z,71.63
2023-02-27T02:39:57.088Z,71.83
2023-02-27T02:42:45.523Z,71.86
2023-02-27T02:45:21.649Z,71.56
2023-02-27T02:48:21.834Z,70.89
2023-02-27T02:50:56.841Z,71.14
2023-02-27T02:53:37.342Z,71.38
2023-02-27T02:56:14.771Z,71.91
2023-02-27T02:58:52.210Z,72.44
2023-02-27T03:01:32.162Z,72.71
2023-02-27T03:04:14.683Z,72.82
2023-02-27T03:06:47.933Z,72.65
2023-02-27T03:09:21.895Z,72.46
2023-02-27T03:11:55.198Z,72.49
2023-02-27T03:14:34.617Z,72.30
2023-02-27T03:17:19.602Z,72.04
2023-02-27T03:19:53.599Z,72.21
2023-02-27T03:22:32.263Z,71.79
2023-02-27T03:25:04.953Z,71.53
2023-02-27T03:27:41.113Z,71.05
2023-02-27T03:30:16.777Z,70.84
2023-02-27T03:32:56.541Z,70.44
2023-02-27T03:35:34.240Z,70.13
2023-02-27T03:38:28.528Z,69.92
2023-02-27T03:41:07.230Z,69.34
2023-02-27T03:43:47.712Z,69.14
2023-02-27T03:46:20.167Z,69.14
2023-02-27T03:49:07.585Z,69.08
2023-02-27T03:51:38.850Z,69.14
2023-02-27T03:54:13.182Z,69.12
2023-02-27T03:56:53.129Z,69.56
2023-02-27T03:59:25.888Z,69.55
2023-02-27T04:02:04.191Z,69.82
2023-02-27T04:04:36.762Z,69.92
2023-02-27T04:07:26.747Z,69.68
2023-02-27T04:10:28.570Z,68.74
2023-02-27T04:13:36.014Z,68.56
2023-02-27T04:16:37.724Z,68.38
2023-02-27T04:19:22.901Z,67.91
2023-02-27T04:22:07.542Z,67.34
2023-02-27T04:24:45.811Z,67.04
2023-02-27T04:27:22.811Z,67.06
2023-02-27T04:29:57.524Z,67.04
2023-02-27T04:33:04.631Z,66.85
2023-02-27T04:35:45.382Z,66.99
2023-02-27T04:38:26.112Z,67.05
2023-02-27T04:41:07.557Z,67.20
2023-02-27T04:43:48.229Z,67.48
2023-02-27T04:46:22.686Z,67.73
2023-02-27T04:49:15.227Z,67.82
2023-02-27T04:51:53.790Z,68.28
2023-02-27T04:54:34.982Z,68.31
2023-02-27T04:57:47.323Z,68.18
2023-02-27T05:00:16.624Z,67.90
2023-02-27T05:03:03.761Z,68.11
2023-02-27T05:05:38.891Z,68.17
2023-02-27T05:08:34.003Z,68.44
2023-02-27T05:11:13.933Z,68.25
2023-02-27T05:14:08.548Z,68.36
2023-02-27T05:16:45.569Z,68.27
2023-02-27T05:19:20.892Z,68.56
2023-02-27T05:21:55.465Z,68.56
2023-02-27T05:24:37.597Z,68.54
2023-02-27T05:27:32.240Z,68.49
2023-02-27T05:30:19.017Z,68.39
2023-02-27T05:33:39.696Z,68.36
2023-02-27T05:36:09.283Z,68.24
2023-02-27T05:38:51.095Z,68.22
2023-02-27T05:41:43.564Z,68.26
2023-02-27T05:44:26.498Z,68.38
2023-02-27T05:47:07.316Z,68.49
2023-02-27T05:49:39.688Z,68.45
2023-02-27T05:52:16.274Z,68.24
2023-02-27T05:54:55.780Z,68.30
2023-02-27T05:57:38.252Z,68.26
2023-02-27T06:00:21.119Z,67.96
2023-02-27T06:02:54.971Z,68.07
2023-02-27T06:05:27.012Z,67.67
2023-02-27T06:07:56.946Z,67.82
2023-02-27T06:10:27.049Z,67.88
2023-02-27T06:13:06.161Z,67.76
2023-02-27T06:15:37.323Z,67.60
2023-02-27T06:18:09.552Z,67.62
2023-02-27T06:20:45.045Z,67.62
2023-02-27T06:23:24.923Z,67.50
2023-02-27T06:26:16.120Z,67.36
2023-02-27T06:28:54.418Z,67.43
2023-02-27T06:31:22.900Z,67.12
2023-02-27T06:33:51.378Z,67.14
2023-02-27T06:36:26.871Z,67.27
2023-02-27T06:39:20.808Z,67.26
2023-02-27T06:41:49.979Z,67.32
2023-02-27T06:44:23.034Z,67.22
2023-02-27T06:46:51.701Z,67.18
2023-02-27T06:49:21.152Z,67.40
2023-02-27T06:52:05.838Z,67.46
2023-02-27T06:54:39.108Z,67.50
2023-02-27T06:57:20.746Z,67.57
2023-02-27T06:59:51.903Z,67.62
2023-02-27T07:02:24.793Z,67.95
2023-02-27T07:05:00.295Z,68.38
2023-02-27T07:07:43.077Z,69.33
2023-02-27T07:10:24.352Z,70.20
2023-02-27T07:12:56.782Z,70.69
2023-02-27T07:15:40.604Z,71.18
2023-02-27T07:18:11.904Z,71.54
2023-02-27T07:20:40.442Z,71.31
2023-02-27T07:23:14.911Z,71.00
2023-02-27T07:25:49.427Z,70.75
2023-02-27T07:28:37.311Z,70.61
2023-02-27T07:31:14.591Z,71.07
2023-02-27T07:33:50.357Z,70.84
2023-02-27T07:36:23.243Z,70.30
2023-02-27T07:39:32.640Z,69.70
2023-02-27T07:42:11.376Z,70.08
2023-02-27T07:44:40.921Z,69.50
2023-02-27T07:47:33.785Z,69.26
2023-02-27T07:50:14.215Z,69.34
2023-02-27T07:52:54.685Z,69.40
2023-02-27T07:55:29.566Z,69.39
2023-02-27T07:58:25.833Z,69.10
2023-02-27T08:04:32.435Z,68.56
2023-02-27T08:07:13.241Z,68.55
2023-02-27T08:10:05.349Z,68.37
2023-02-27T08:12:35.109Z,68.14
2023-02-27T08:15:17.775Z,67.73
2023-02-27T08:17:51.008Z,67.22
2023-02-27T08:22:20.283Z,66.69
2023-02-27T08:24:41.772Z,66.05
2023-02-27T08:34:46.376Z,65.62
2023-02-27T08:39:58.054Z,65.28
2023-02-27T08:41:53.440Z,65.56
2023-02-27T08:48:31.033Z,65.47
2023-02-27T09:17:12.256Z,63.86
2023-02-27T09:18:01.147Z,65.35
2023-02-27T09:19:51.493Z,63.42
2023-02-27T09:22:23.594Z,63.44
2023-02-27T09:28:53.882Z,63.82
2023-02-27T09:31:25.402Z,63.19
2023-02-27T09:34:46.741Z,62.54
2023-02-27T09:37:25.274Z,62.38
2023-02-27T09:40:22.344Z,62.10
2023-02-27T09:42:58.734Z,62.57
2023-02-27T09:45:54.654Z,62.53
2023-02-27T09:49:13.081Z,61.89
2023-02-27T09:51:45.013Z,60.92
2023-02-27T10:02:15.216Z,61.07
2023-02-27T10:05:16.544Z,61.55
2023-02-27T10:07:53.883Z,62.49
2023-02-27T10:10:32.909Z,62.88
2023-02-27T10:13:26.476Z,63.32
2023-02-27T10:15:56.600Z,63.75
2023-02-27T10:18:30.381Z,64.35
2023-02-27T10:21:01.741Z,64.72
2023-02-27T10:23:37.220Z,64.99
2023-02-27T10:26:07.742Z,64.17
2023-02-27T10:28:36.086Z,63.40
2023-02-27T10:31:12.354Z,63.93
2023-02-27T10:33:44.393Z,64.09
2023-02-27T10:36:20.626Z,63.47
2023-02-27T10:38:59.765Z,63.27
2023-02-27T10:41:30.366Z,63.17
2023-02-27T10:44:00.058Z,62.41
2023-02-27T10:46:31.220Z,61.97
2023-02-27T10:49:01.858Z,62.32
2023-02-27T10:51:32.041Z,63.37
2023-02-27T10:54:15.471Z,63.53
2023-02-27T10:56:48.905Z,64.08
2023-02-27T10:59:20.719Z,65.65
2023-02-27T11:01:51.716Z,66.45
2023-02-27T11:04:29.334Z,66.58
2023-02-27T11:06:58.144Z,66.85
2023-02-27T11:09:28.381Z,66.51
2023-02-27T11:12:12.332Z,66.45
2023-02-27T11:14:50.630Z,67.39
2023-02-27T11:17:28.774Z,66.75
2023-02-27T11:19:58.022Z,66.22
2023-02-27T11:22:27.868Z,66.31
2023-02-27T11:25:19.306Z,65.75
2023-02-27T11:27:49.516Z,64.39
2023-02-27T11:34:29.782Z,60.84
2023-02-27T11:37:29.361Z,60.59
2023-02-27T11:40:25.147Z,60.36
2023-02-27T11:58:21.949Z,56.51
2023-02-27T12:34:55.536Z,56.38
2023-02-27T12:37:33.626Z,54.89
2023-02-27T12:40:09.332Z,55.72
2023-02-27T12:46:40.267Z,57.74
2023-02-27T13:13:40.304Z,53.95
2023-02-27T13:16:16.830Z,54.45
2023-02-27T15:03:29.972Z,62.97
2023-02-27T15:06:15.860Z,64.65
2023-02-27T15:09:01.156Z,65.13
2023-02-27T15:11:30.256Z,64.63
2023-02-27T15:14:12.783Z,64.10
2023-02-27T15:16:41.721Z,63.36
2023-02-27T15:19:19.274Z,62.25
2023-02-27T15:21:51.331Z,61.94
2023-02-27T15:27:56.798Z,59.62
2023-02-27T15:57:03.232Z,56.87
2023-02-27T15:59:43.705Z,56.66
2023-02-27T16:02:22.163Z,56.45
2023-02-27T16:04:51.043Z,56.62
2023-02-27T16:07:25.675Z,57.56
2023-02-27T16:10:18.539Z,59.08
2023-02-27T16:12:52.972Z,59.20
2023-02-27T16:15:48.687Z,59.75
2023-02-27T16:18:30.301Z,60.23
2023-02-27T16:25:10.034Z,61.07
2023-02-27T17:33:54.828Z,63.49
2023-02-27T17:36:25.034Z,64.05
2023-02-27T17:38:55.477Z,64.50
2023-02-27T17:41:25.441Z,64.33
2023-02-27T17:43:55.460Z,64.43
2023-02-27T17:46:24.931Z,65.19
2023-02-27T17:48:54.172Z,65.42
2023-02-27T17:51:23.830Z,65.36
2023-02-27T17:53:51.912Z,65.24
2023-02-27T17:56:23.854Z,65.28
2023-02-27T17:58:52.157Z,65.48
2023-02-27T18:01:25.200Z,65.93
2023-02-27T18:03:54.964Z,66.17
2023-02-27T18:06:28.802Z,66.26
2023-02-27T18:08:57.226Z,66.36
2023-02-27T18:11:25.738Z,65.86
2023-02-27T18:13:54.452Z,64.50
2023-02-27T18:16:23.433Z,63.82
2023-02-27T18:18:51.875Z,63.57
2023-02-27T18:21:22.996Z,63.64
2023-02-27T18:23:53.681Z,63.18
2023-02-27T18:26:29.836Z,62.63
2023-02-27T18:29:00.627Z,62.76
2023-02-27T18:31:31.827Z,62.58
2023-02-27T18:34:00.685Z,62.68
2023-02-27T18:36:29.992Z,63.04
2023-02-27T18:38:59.991Z,63.20
2023-02-27T18:41:29.271Z,63.72
2023-02-27T18:43:58.503Z,64.00
2023-02-27T18:46:29.362Z,64.34
2023-02-27T18:48:58.081Z,64.84
2023-02-27T18:51:26.918Z,64.85
2023-02-27T18:53:55.548Z,64.80
2023-02-27T18:56:27.697Z,65.13
2023-02-27T18:59:02.095Z,65.32
2023-02-27T19:01:33.247Z,65.66
2023-02-27T19:04:03.915Z,66.13
2023-02-27T19:06:34.835Z,66.34
2023-02-27T19:09:05.086Z,66.50
2023-02-27T19:11:34.803Z,67.04
2023-02-27T19:14:03.986Z,67.15
2023-02-27T19:16:32.674Z,67.23
2023-02-27T19:19:03.277Z,67.82
2023-02-27T19:21:32.990Z,68.20
2023-02-27T19:24:02.407Z,68.17
2023-02-27T19:26:30.948Z,68.14
2023-02-27T19:29:03.354Z,68.27
2023-02-27T19:31:32.322Z,68.25
2023-02-27T19:34:00.511Z,68.52
2023-02-27T19:36:30.823Z,68.64
2023-02-27T19:39:00.154Z,68.75
2023-02-27T19:41:30.428Z,68.48
2023-02-27T19:44:01.591Z,68.95
2023-02-27T19:46:31.985Z,69.08
2023-02-27T19:49:03.317Z,69.45
2023-02-27T19:51:32.055Z,70.29
2023-02-27T19:54:00.298Z,71.16
2023-02-27T19:56:31.610Z,71.40
2023-02-27T19:59:02.045Z,71.50
2023-02-27T20:01:31.196Z,71.93
2023-02-27T20:04:00.342Z,72.38
2023-02-27T20:06:31.072Z,72.59
2023-02-27T20:09:01.414Z,72.69
2023-02-27T20:11:31.163Z,72.87
2023-02-27T20:14:03.547Z,73.28
2023-02-27T20:16:43.551Z,73.58
2023-02-27T20:19:14.948Z,73.77
2023-02-27T20:21:43.339Z,73.99
2023-02-27T20:24:12.380Z,74.57
2023-02-27T20:26:42.981Z,74.61
2023-02-27T20:29:15.080Z,74.73
2023-02-27T20:31:46.155Z,74.79
2023-02-27T20:34:16.546Z,74.81
2023-02-27T20:36:45.446Z,75.10
2023-02-27T20:39:13.914Z,75.07
2023-02-27T20:41:42.435Z,75.39
2023-02-27T20:44:13.624Z,75.75
2023-02-27T20:46:43.071Z,75.93
2023-02-27T20:49:15.763Z,76.03
2023-02-27T20:51:46.290Z,76.13
2023-02-27T20:54:20.852Z,75.96
2023-02-27T20:56:52.002Z,76.06
2023-02-27T20:59:23.582Z,76.02
2023-02-27T21:01:52.636Z,76.13
2023-02-27T21:04:22.871Z,76.14
2023-02-27T21:06:52.106Z,76.71
2023-02-27T21:09:20.323Z,76.37
2023-02-27T21:11:52.835Z,76.15
2023-02-27T21:14:24.445Z,76.32
2023-02-27T21:17:46.046Z,76.81
2023-02-27T21:20:50.361Z,76.38
2023-02-27T21:23:44.676Z,76.01
2023-02-27T21:26:48.335Z,75.69
2023-02-27T21:29:44.330Z,75.51
2023-02-27T21:32:24.452Z,76.14
2023-02-27T21:35:00.624Z,76.77
2023-02-27T21:37:47.204Z,76.16
2023-02-27T21:40:15.953Z,76.50
2023-02-27T21:42:44.286Z,76.87
2023-02-27T21:45:13.030Z,76.96
2023-02-27T21:47:42.484Z,77.24
2023-02-27T21:50:15.226Z,77.46
2023-02-27T21:52:43.516Z,77.30
2023-02-27T21:55:12.835Z,77.01
2023-02-27T21:57:41.559Z,77.70
2023-02-27T22:00:12.726Z,77.55
2023-02-27T22:02:42.356Z,77.45
2023-02-27T22:05:10.893Z,77.44
2023-02-27T22:07:39.049Z,77.67
2023-02-27T22:10:07.934Z,77.50
2023-02-27T22:12:36.307Z,77.61
2023-02-27T22:15:05.527Z,77.57
2023-02-27T22:17:35.693Z,77.34
2023-02-27T22:20:07.386Z,77.30
2023-02-27T22:22:35.725Z,77.24
2023-02-27T22:25:03.848Z,77.23
2023-02-27T22:27:31.922Z,77.43
2023-02-27T22:30:00.262Z,77.48
2023-02-27T22:32:28.828Z,77.59
2023-02-27T22:35:00.194Z,77.48
2023-02-27T22:37:29.659Z,77.44
2023-02-27T22:39:57.800Z,77.21
2023-02-27T22:42:25.970Z,77.15
2023-02-27T22:44:55.535Z,77.24
2023-02-27T22:47:23.566Z,77.15
2023-02-27T22:49:52.220Z,77.43
2023-02-27T22:52:20.441Z,77.23
2023-02-27T22:54:50.698Z,77.47
2023-02-27T22:57:18.484Z,77.58
2023-02-27T22:59:47.303Z,77.15
2023-02-27T23:02:16.274Z,77.28
2023-02-27T23:04:44.844Z,77.19
2023-02-27T23:07:12.977Z,77.28
2023-02-27T23:09:41.096Z,77.35
2023-02-27T23:12:10.721Z,77.22
2023-02-27T23:14:38.855Z,77.38
2023-02-27T23:17:07.769Z,77.22
2023-02-27T23:19:36.702Z,77.37
2023-02-27T23:22:05.360Z,77.29
2023-02-27T23:24:33.549Z,77.46
2023-02-27T23:27:03.591Z,77.58
2023-02-27T23:29:34.406Z,77.56
2023-02-27T23:32:02.929Z,77.92
2023-02-27T23:34:43.747Z,78.34
2023-02-27T23:37:18.654Z,78.50
2023-02-27T23:39:46.731Z,79.00
2023-02-27T23:42:32.429Z,79.14
2023-02-27T23:45:19.679Z,79.47
2023-02-27T23:47:51.915Z,79.58
2023-02-27T23:50:22.271Z,79.97
2023-02-27T23:52:51.975Z,80.57
2023-02-27T23:55:21.286Z,81.04
2023-02-27T23:57:53.027Z,81.22
